createdAt,value
2022-12-24T00:01:02.484Z,4.03
2022-12-24T00:03:29.421Z,3.90
2022-12-24T00:05:56.337Z,3.80
2022-12-24T00:08:23.379Z,3.03
2022-12-24T00:10:54.139Z,4.10
2022-12-24T00:13:21.393Z,4.30
2022-12-24T00:15:48.856Z,3.97
2022-12-24T00:18:16.110Z,3.50
2022-12-24T00:20:49.037Z,4.43
2022-12-24T00:23:17.430Z,4.10
2022-12-24T00:25:44.650Z,4.43
2022-12-24T00:28:12.403Z,3.57
2022-12-24T00:30:40.246Z,3.50
2022-12-24T00:33:07.372Z,3.07
2022-12-24T00:35:35.593Z,3.13
2022-12-24T00:38:03.874Z,3.47
2022-12-24T00:40:30.901Z,4.10
2022-12-24T00:42:57.744Z,3.23
2022-12-24T00:45:24.709Z,3.37
2022-12-24T00:47:51.398Z,4.43
2022-12-24T00:50:18.204Z,4.77
2022-12-24T00:52:44.897Z,4.07
2022-12-24T00:55:11.670Z,4.63
2022-12-24T00:57:38.351Z,3.93
2022-12-24T01:00:06.120Z,3.73
2022-12-24T01:02:33.075Z,3.90
2022-12-24T01:05:11.958Z,3.70
2022-12-24T01:07:41.882Z,3.00
2022-12-24T01:10:09.965Z,3.60
2022-12-24T01:12:37.415Z,3.20
2022-12-24T01:15:05.224Z,3.10
2022-12-24T01:17:33.761Z,3.70
2022-12-24T01:20:00.584Z,3.50
2022-12-24T01:22:27.492Z,3.37
2022-12-24T01:24:54.391Z,3.93
2022-12-24T01:27:21.371Z,3.37
2022-12-24T01:29:48.144Z,3.30
2022-12-24T01:32:15.067Z,4.03
2022-12-24T01:34:41.973Z,3.30
2022-12-24T01:37:08.849Z,3.57
2022-12-24T01:39:35.700Z,4.57
2022-12-24T01:42:21.282Z,3.00
2022-12-24T01:44:52.182Z,3.80
2022-12-24T01:47:27.318Z,2.80
2022-12-24T01:49:56.176Z,3.90
2022-12-24T01:52:31.289Z,3.77
2022-12-24T01:55:03.482Z,3.27
2022-12-24T01:57:59.692Z,4.10
2022-12-24T02:00:26.606Z,3.47
2022-12-24T02:02:54.455Z,3.30
2022-12-24T02:05:21.441Z,4.27
2022-12-24T02:07:48.929Z,3.27
2022-12-24T02:10:17.146Z,4.57
2022-12-24T02:12:45.352Z,3.57
2022-12-24T02:15:15.315Z,3.23
2022-12-24T02:18:05.488Z,3.40
2022-12-24T02:21:15.875Z,4.20
2022-12-24T02:23:55.753Z,3.87
2022-12-24T02:26:37.804Z,4.83
2022-12-24T02:29:30.400Z,3.67
2022-12-24T02:32:11.815Z,4.40
2022-12-24T02:35:01.364Z,3.97
2022-12-24T02:37:47.468Z,4.30
2022-12-24T02:40:17.069Z,4.37
2022-12-24T02:42:50.231Z,4.37
2022-12-24T02:45:20.890Z,3.53
2022-12-24T02:47:48.917Z,4.33
2022-12-24T02:50:17.645Z,5.00
2022-12-24T02:52:47.003Z,4.23
2022-12-24T02:55:20.890Z,5.00
2022-12-24T02:58:31.505Z,4.17
2022-12-24T03:01:23.039Z,4.37
2022-12-24T03:04:16.044Z,4.10
2022-12-24T03:06:52.061Z,4.57
2022-12-24T03:09:31.082Z,4.00
2022-12-24T03:12:35.006Z,4.00
2022-12-24T03:15:03.298Z,4.33
2022-12-24T03:17:31.681Z,4.70
2022-12-24T03:19:58.468Z,3.87
2022-12-24T03:22:26.493Z,3.90
2022-12-24T03:24:53.272Z,3.83
2022-12-24T03:27:20.315Z,3.97
2022-12-24T03:29:47.567Z,4.40
2022-12-24T03:32:14.420Z,4.70
2022-12-24T03:34:41.190Z,4.93
2022-12-24T03:37:07.929Z,4.57
2022-12-24T03:39:34.826Z,3.67
2022-12-24T03:42:01.593Z,5.13
2022-12-24T03:44:28.454Z,4.43
2022-12-24T03:46:55.393Z,4.50
2022-12-24T03:49:22.117Z,4.03
2022-12-24T03:51:48.877Z,4.13
2022-12-24T03:54:15.674Z,4.60
2022-12-24T03:56:42.416Z,4.13
2022-12-24T03:59:09.387Z,4.03
2022-12-24T04:01:36.490Z,4.40
2022-12-24T04:04:03.453Z,4.70
2022-12-24T04:06:30.234Z,3.70
2022-12-24T04:08:57.159Z,4.40
2022-12-24T04:11:24.025Z,4.17
2022-12-24T04:13:50.766Z,3.70
2022-12-24T04:16:17.692Z,4.37
2022-12-24T04:18:45.085Z,4.80
2022-12-24T04:21:12.244Z,4.70
2022-12-24T04:23:40.928Z,4.37
2022-12-24T04:26:10.548Z,4.17
2022-12-24T04:28:38.754Z,4.07
2022-12-24T04:31:09.036Z,4.13
2022-12-24T04:33:36.627Z,4.20
2022-12-24T04:36:05.595Z,4.43
2022-12-24T04:38:33.181Z,5.57
2022-12-24T04:41:04.235Z,4.60
2022-12-24T04:43:31.672Z,4.23
2022-12-24T04:46:06.510Z,4.37
2022-12-24T04:48:33.745Z,5.07
2022-12-24T04:51:05.004Z,4.37
2022-12-24T04:53:32.671Z,4.53
2022-12-24T04:55:59.499Z,5.20
2022-12-24T04:58:26.616Z,4.00
2022-12-24T05:00:53.927Z,4.53
2022-12-24T05:03:20.954Z,4.07
2022-12-24T05:05:47.943Z,3.67
2022-12-24T05:08:14.787Z,4.73
2022-12-24T05:10:41.645Z,4.37
2022-12-24T05:13:08.449Z,4.80
2022-12-24T05:15:35.216Z,4.17
2022-12-24T05:18:01.922Z,4.37
2022-12-24T05:20:28.759Z,4.97
2022-12-24T05:23:14.076Z,5.27
2022-12-24T05:25:59.467Z,4.57
2022-12-24T05:28:26.331Z,4.43
2022-12-24T05:30:53.156Z,4.47
2022-12-24T05:33:19.929Z,4.33
2022-12-24T05:35:46.738Z,5.80
2022-12-24T05:38:13.459Z,4.63
2022-12-24T05:40:40.258Z,5.10
2022-12-24T05:43:06.989Z,5.40
2022-12-24T05:45:34.041Z,5.57
2022-12-24T05:48:00.905Z,4.50
2022-12-24T05:50:27.730Z,4.80
2022-12-24T05:52:54.431Z,4.13
2022-12-24T05:55:21.267Z,4.77
2022-12-24T05:57:48.002Z,4.33
2022-12-24T06:00:14.995Z,4.37
2022-12-24T06:02:41.911Z,4.83
2022-12-24T06:05:09.042Z,5.10
2022-12-24T06:07:35.877Z,5.17
2022-12-24T06:10:02.770Z,4.33
2022-12-24T06:12:29.526Z,4.43
2022-12-24T06:14:56.235Z,5.37
2022-12-24T06:17:23.057Z,5.33
2022-12-24T06:19:49.756Z,4.27
2022-12-24T06:22:16.444Z,4.80
2022-12-24T06:24:43.136Z,4.03
2022-12-24T06:27:09.859Z,4.90
2022-12-24T06:29:36.631Z,4.43
2022-12-24T06:32:03.431Z,4.23
2022-12-24T06:34:30.220Z,4.60
2022-12-24T06:36:56.957Z,5.00
2022-12-24T06:39:23.965Z,4.57
2022-12-24T06:41:50.653Z,4.67
2022-12-24T06:44:17.418Z,4.83
2022-12-24T06:46:44.262Z,4.73
2022-12-24T06:49:11.038Z,5.03
2022-12-24T06:51:37.747Z,4.50
2022-12-24T06:54:04.694Z,4.87
2022-12-24T06:56:31.478Z,4.37
2022-12-24T06:59:04.899Z,4.17
2022-12-24T07:01:32.393Z,4.33
2022-12-24T07:03:59.450Z,4.83
2022-12-24T07:06:28.631Z,4.00
2022-12-24T07:08:55.507Z,3.50
2022-12-24T07:11:24.087Z,4.03
2022-12-24T07:13:50.989Z,4.77
2022-12-24T07:16:18.271Z,3.47
2022-12-24T07:18:45.369Z,4.53
2022-12-24T07:21:12.109Z,4.97
2022-12-24T07:23:38.866Z,3.73
2022-12-24T07:26:07.392Z,4.40
2022-12-24T07:28:34.539Z,4.20
2022-12-24T07:31:01.605Z,4.57
2022-12-24T07:33:28.467Z,4.10
2022-12-24T07:36:02.930Z,5.23
2022-12-24T07:38:30.892Z,3.90
2022-12-24T07:40:58.373Z,4.80
2022-12-24T07:43:26.518Z,4.90
2022-12-24T07:45:57.908Z,4.87
2022-12-24T07:48:26.774Z,5.37
2022-12-24T07:50:53.606Z,5.73
2022-12-24T07:53:20.381Z,4.77
2022-12-24T07:55:47.109Z,4.57
2022-12-24T07:58:13.873Z,5.00
2022-12-24T08:00:40.889Z,4.40
2022-12-24T08:03:07.786Z,4.50
2022-12-24T08:05:36.467Z,5.23
2022-12-24T08:08:03.437Z,5.03
2022-12-24T08:10:30.158Z,4.43
2022-12-24T08:12:56.916Z,4.63
2022-12-24T08:15:23.620Z,4.27
2022-12-24T08:17:50.409Z,4.17
2022-12-24T08:20:17.411Z,5.20
2022-12-24T08:22:44.137Z,5.53
2022-12-24T08:25:10.830Z,4.67
2022-12-24T08:27:38.257Z,5.97
2022-12-24T08:30:05.602Z,4.70
2022-12-24T08:32:32.489Z,4.87
2022-12-24T08:34:59.307Z,5.00
2022-12-24T08:37:25.975Z,5.17
2022-12-24T08:39:52.744Z,4.63
2022-12-24T08:42:19.692Z,5.37
2022-12-24T08:44:46.786Z,4.93
2022-12-24T08:47:13.585Z,4.93
2022-12-24T08:49:40.459Z,4.87
2022-12-24T08:52:07.226Z,5.03
2022-12-24T08:54:34.185Z,4.50
2022-12-24T08:57:00.976Z,4.37
2022-12-24T08:59:27.779Z,4.40
2022-12-24T09:01:54.631Z,5.47
2022-12-24T09:04:21.509Z,4.57
2022-12-24T09:06:48.243Z,4.40
2022-12-24T09:09:15.030Z,5.47
2022-12-24T09:11:41.777Z,4.20
2022-12-24T09:14:08.473Z,4.67
2022-12-24T09:16:35.288Z,5.00
2022-12-24T09:19:02.189Z,3.83
2022-12-24T09:21:29.208Z,5.30
2022-12-24T09:23:55.939Z,4.83
2022-12-24T09:26:27.123Z,4.40
2022-12-24T09:28:54.178Z,4.63
2022-12-24T09:31:22.036Z,4.70
2022-12-24T09:33:51.012Z,5.13
2022-12-24T09:36:18.733Z,5.33
2022-12-24T09:38:45.862Z,5.90
2022-12-24T09:41:35.488Z,5.23
2022-12-24T09:44:21.557Z,5.43
2022-12-24T09:46:52.246Z,4.83
2022-12-24T09:49:26.399Z,4.37
2022-12-24T09:52:00.244Z,7.73
2022-12-24T09:54:47.735Z,6.07
2022-12-24T09:57:25.858Z,4.93
2022-12-24T09:59:52.675Z,5.03
2022-12-24T10:02:20.364Z,5.03
2022-12-24T10:04:48.570Z,5.40
2022-12-24T10:07:34.128Z,5.53
2022-12-24T10:10:07.230Z,5.13
2022-12-24T10:12:49.185Z,5.37
2022-12-24T10:15:27.614Z,4.83
2022-12-24T10:18:19.248Z,4.60
2022-12-24T10:20:49.081Z,4.70
2022-12-24T10:23:19.973Z,4.87
2022-12-24T10:26:03.460Z,5.60
2022-12-24T10:28:53.555Z,4.83
2022-12-24T10:31:48.255Z,4.60
2022-12-24T10:34:25.157Z,4.57
2022-12-24T10:36:52.326Z,4.90
2022-12-24T10:39:21.966Z,5.33
2022-12-24T10:41:51.024Z,5.00
2022-12-24T10:44:22.225Z,3.87
2022-12-24T10:46:49.059Z,4.20
2022-12-24T10:50:00.301Z,5.17
2022-12-24T10:52:32.764Z,4.97
2022-12-24T10:55:16.153Z,4.63
2022-12-24T10:57:44.934Z,5.20
2022-12-24T11:00:24.325Z,5.07
2022-12-24T11:03:12.536Z,4.53
2022-12-24T11:05:40.079Z,4.33
2022-12-24T11:08:17.297Z,4.17
2022-12-24T11:11:02.650Z,3.70
2022-12-24T11:13:40.249Z,5.13
2022-12-24T11:16:25.860Z,4.63
2022-12-24T11:18:55.271Z,5.03
2022-12-24T11:21:28.422Z,3.93
2022-12-24T11:24:00.386Z,4.27
2022-12-24T11:26:30.848Z,5.13
2022-12-24T11:29:16.683Z,4.10
2022-12-24T11:31:45.300Z,3.83
2022-12-24T11:34:24.572Z,4.17
2022-12-24T11:36:53.102Z,3.67
2022-12-24T11:39:26.371Z,4.17
2022-12-24T11:41:54.283Z,3.60
2022-12-24T11:44:28.369Z,3.43
2022-12-24T11:46:59.219Z,3.70
2022-12-24T11:49:31.819Z,3.30
2022-12-24T11:52:10.134Z,4.13
2022-12-24T11:54:53.187Z,4.80
2022-12-24T11:57:22.991Z,4.10
2022-12-24T11:59:52.172Z,3.13
2022-12-24T12:02:26.672Z,3.10
2022-12-24T12:05:05.228Z,3.30
2022-12-24T12:07:35.464Z,3.07
2022-12-24T12:10:15.654Z,4.13
2022-12-24T12:12:46.464Z,3.40
2022-12-24T12:15:23.259Z,2.87
2022-12-24T12:17:56.835Z,3.47
2022-12-24T12:20:39.376Z,2.90
2022-12-24T12:23:15.882Z,3.67
2022-12-24T12:25:55.410Z,3.10
2022-12-24T12:28:23.092Z,3.50
2022-12-24T12:31:17.065Z,2.97
2022-12-24T12:33:49.844Z,2.50
2022-12-24T12:36:21.039Z,3.20
2022-12-24T12:38:48.970Z,2.97
2022-12-24T12:41:37.791Z,3.27
2022-12-24T12:44:44.711Z,2.87
2022-12-24T12:47:17.224Z,3.07
2022-12-24T12:50:02.522Z,3.10
2022-12-24T12:52:47.328Z,4.03
2022-12-24T12:55:33.420Z,3.27
2022-12-24T12:58:13.324Z,3.17
2022-12-24T13:00:45.276Z,3.30
2022-12-24T13:03:42.473Z,3.73
2022-12-24T13:06:33.744Z,3.43
2022-12-24T13:09:25.121Z,3.17
2022-12-24T13:12:22.582Z,3.73
2022-12-24T13:15:29.061Z,3.60
2022-12-24T13:18:08.705Z,4.67
2022-12-24T13:20:42.205Z,3.90
2022-12-24T13:23:14.765Z,5.37
2022-12-24T13:26:05.911Z,3.13
2022-12-24T13:28:35.316Z,3.53
2022-12-24T13:31:02.125Z,4.40
2022-12-24T13:33:37.967Z,3.77
2022-12-24T13:36:19.042Z,3.63
2022-12-24T13:38:57.133Z,3.00
2022-12-24T13:41:41.316Z,3.37
2022-12-24T13:44:13.099Z,3.50
2022-12-24T13:47:09.286Z,3.67
2022-12-24T13:49:49.807Z,3.43
2022-12-24T13:52:21.417Z,3.47
2022-12-24T13:55:02.245Z,4.10
2022-12-24T13:57:48.237Z,3.37
2022-12-24T14:00:20.939Z,3.73
2022-12-24T14:02:53.397Z,3.40
2022-12-24T14:05:29.036Z,4.07
2022-12-24T14:07:57.496Z,3.80
2022-12-24T14:10:30.045Z,3.77
2022-12-24T14:12:56.752Z,3.60
2022-12-24T14:16:00.656Z,4.03
2022-12-24T14:18:28.646Z,3.47
2022-12-24T14:20:58.195Z,3.43
2022-12-24T14:23:27.987Z,3.67
2022-12-24T14:25:54.736Z,3.37
2022-12-24T14:28:27.007Z,4.30
2022-12-24T14:31:05.789Z,3.93
2022-12-24T14:33:34.635Z,3.27
2022-12-24T14:36:02.778Z,3.00
2022-12-24T14:38:30.512Z,4.60
2022-12-24T14:41:09.062Z,4.30
2022-12-24T14:44:00.038Z,3.03
2022-12-24T14:46:48.003Z,3.70
2022-12-24T14:49:53.586Z,4.87
2022-12-24T14:53:03.523Z,4.03
2022-12-24T14:55:39.527Z,4.00
2022-12-24T14:58:23.921Z,3.97
2022-12-24T15:00:52.141Z,4.20
2022-12-24T15:03:21.652Z,4.13
2022-12-24T15:05:57.625Z,5.17
2022-12-24T15:08:33.314Z,4.17
2022-12-24T15:11:03.703Z,4.07
2022-12-24T15:13:42.426Z,6.27
2022-12-24T15:16:19.074Z,4.10
2022-12-24T15:18:56.885Z,4.30
2022-12-24T15:21:31.207Z,4.57
2022-12-24T15:23:58.378Z,5.33
2022-12-24T15:26:36.526Z,4.70
2022-12-24T15:29:20.895Z,5.73
2022-12-24T15:31:56.164Z,5.53
2022-12-24T15:34:40.806Z,4.03
2022-12-24T15:37:10.602Z,5.30
2022-12-24T15:39:41.025Z,4.67
2022-12-24T15:42:18.027Z,5.30
2022-12-24T15:45:08.184Z,5.33
2022-12-24T15:47:45.550Z,4.97
2022-12-24T15:50:32.016Z,5.17
2022-12-24T15:53:21.170Z,5.70
2022-12-24T15:56:12.010Z,5.57
2022-12-24T15:58:44.405Z,6.20
2022-12-24T16:01:15.207Z,6.10
2022-12-24T16:03:55.717Z,6.20
2022-12-24T16:06:23.279Z,6.07
2022-12-24T16:08:51.924Z,6.20
2022-12-24T16:11:20.454Z,6.70
2022-12-24T16:14:20.442Z,6.77
2022-12-24T16:16:49.932Z,5.67
2022-12-24T16:19:25.744Z,7.37
2022-12-24T16:21:55.370Z,7.47
2022-12-24T16:24:28.549Z,7.30
2022-12-24T16:26:55.849Z,7.03
2022-12-24T16:29:22.702Z,6.90
2022-12-24T16:31:57.977Z,6.73
2022-12-24T16:34:28.095Z,7.67
2022-12-24T16:36:55.523Z,7.90
2022-12-24T16:39:25.777Z,7.07
2022-12-24T16:42:11.541Z,7.63
2022-12-24T16:44:38.568Z,7.43
2022-12-24T16:47:13.464Z,8.17
2022-12-24T16:49:40.219Z,7.73
2022-12-24T16:52:08.218Z,7.83
2022-12-24T16:54:34.964Z,6.93
2022-12-24T16:57:01.677Z,7.33
2022-12-24T16:59:28.412Z,7.23
2022-12-24T17:01:55.145Z,6.37
2022-12-24T17:04:21.920Z,6.50
2022-12-24T17:06:50.454Z,6.90
2022-12-24T17:09:17.774Z,7.23
2022-12-24T17:11:44.620Z,8.13
2022-12-24T17:14:19.837Z,7.90
2022-12-24T17:16:47.277Z,8.10
2022-12-24T17:19:13.973Z,6.40
2022-12-24T17:21:41.047Z,6.50
2022-12-24T17:24:08.891Z,6.30
2022-12-24T17:26:36.862Z,6.90
2022-12-24T17:29:05.229Z,6.77
2022-12-24T17:31:33.400Z,6.37
2022-12-24T17:34:00.503Z,6.23
2022-12-24T17:36:27.512Z,6.73
2022-12-24T17:38:54.277Z,6.37
2022-12-24T17:41:21.656Z,8.30
2022-12-24T17:43:48.987Z,6.13
2022-12-24T17:46:24.108Z,6.90
2022-12-24T17:48:51.569Z,7.03
2022-12-24T17:51:23.431Z,6.20
2022-12-24T17:53:50.860Z,7.30
2022-12-24T17:56:18.203Z,6.87
2022-12-24T17:58:46.284Z,6.50
2022-12-24T18:01:19.528Z,8.00
2022-12-24T18:03:47.942Z,6.87
2022-12-24T18:06:15.293Z,7.33
2022-12-24T18:08:43.298Z,7.70
2022-12-24T18:11:15.835Z,7.70
2022-12-24T18:13:42.852Z,8.10
2022-12-24T18:16:28.478Z,7.37
2022-12-24T18:18:56.059Z,7.23
2022-12-24T18:21:25.829Z,7.00
2022-12-24T18:23:55.070Z,7.37
2022-12-24T18:26:22.657Z,8.07
2022-12-24T18:28:49.734Z,8.23
2022-12-24T18:31:19.057Z,7.67
2022-12-24T18:33:47.179Z,7.37
2022-12-24T18:36:14.062Z,7.97
2022-12-24T18:38:41.322Z,7.93
2022-12-24T18:41:10.685Z,7.67
2022-12-24T18:43:37.896Z,9.13
2022-12-24T18:46:34.205Z,10.17
2022-12-24T18:49:02.070Z,9.90
2022-12-24T18:51:33.285Z,10.13
2022-12-24T18:54:00.176Z,9.67
2022-12-24T18:56:27.788Z,9.03
2022-12-24T18:58:59.980Z,8.67
2022-12-24T19:01:30.105Z,9.10
2022-12-24T19:03:57.159Z,8.77
2022-12-24T19:06:24.552Z,9.20
2022-12-24T19:09:00.943Z,8.83
2022-12-24T19:11:31.321Z,8.60
2022-12-24T19:13:58.867Z,8.07
2022-12-24T19:16:27.061Z,7.50
2022-12-24T19:18:54.024Z,8.27
2022-12-24T19:21:21.372Z,7.93
2022-12-24T19:23:48.815Z,8.20
2022-12-24T19:26:17.271Z,8.43
2022-12-24T19:28:44.876Z,8.50
2022-12-24T19:31:18.511Z,7.90
2022-12-24T19:33:50.765Z,7.73
2022-12-24T19:36:20.171Z,8.70
2022-12-24T19:38:47.393Z,8.17
2022-12-24T19:41:17.030Z,8.67
2022-12-24T19:43:48.931Z,8.43
2022-12-24T19:46:19.420Z,7.33
2022-12-24T19:48:51.190Z,7.50
2022-12-24T19:51:19.613Z,7.57
2022-12-24T19:53:47.710Z,7.07
2022-12-24T19:56:16.134Z,6.57
2022-12-24T19:58:42.995Z,6.90
2022-12-24T20:01:29.805Z,6.57
2022-12-24T20:03:57.388Z,7.33
2022-12-24T20:06:27.898Z,7.47
2022-12-24T20:09:05.924Z,7.37
2022-12-24T20:11:33.308Z,6.27
2022-12-24T20:14:02.611Z,6.63
2022-12-24T20:16:29.811Z,6.97
2022-12-24T20:18:59.162Z,7.07
2022-12-24T20:21:26.646Z,6.97
2022-12-24T20:23:53.858Z,7.37
2022-12-24T20:26:25.082Z,6.27
2022-12-24T20:28:52.610Z,6.90
2022-12-24T20:31:22.749Z,7.37
2022-12-24T20:33:49.875Z,6.60
2022-12-24T20:36:18.965Z,7.13
2022-12-24T20:38:46.489Z,7.23
2022-12-24T20:41:15.540Z,7.30
2022-12-24T20:43:47.805Z,8.07
2022-12-24T20:46:16.113Z,7.33
2022-12-24T20:48:42.911Z,6.90
2022-12-24T20:51:22.777Z,7.37
2022-12-24T20:53:55.734Z,6.97
2022-12-24T20:56:23.917Z,7.00
2022-12-24T20:58:51.176Z,7.23
2022-12-24T21:01:26.447Z,6.30
2022-12-24T21:03:55.205Z,7.23
2022-12-24T21:06:23.436Z,7.47
2022-12-24T21:08:50.715Z,7.30
2022-12-24T21:11:37.073Z,7.13
2022-12-24T21:14:04.010Z,6.50
2022-12-24T21:16:32.406Z,7.37
2022-12-24T21:18:59.462Z,7.90
2022-12-24T21:21:26.171Z,6.30
2022-12-24T21:23:53.186Z,6.20
2022-12-24T21:26:19.924Z,6.57
2022-12-24T21:28:47.377Z,7.00
2022-12-24T21:31:14.870Z,6.30
2022-12-24T21:33:42.375Z,6.50
2022-12-24T21:36:11.776Z,7.27
2022-12-24T21:38:38.773Z,6.63
2022-12-24T21:41:17.504Z,7.90
2022-12-24T21:43:44.924Z,5.80
2022-12-24T21:46:19.495Z,6.30
2022-12-24T21:49:04.988Z,6.27
2022-12-24T21:51:32.941Z,6.43
2022-12-24T21:54:18.691Z,6.47
2022-12-24T21:57:03.950Z,6.87
2022-12-24T21:59:30.776Z,6.83
2022-12-24T22:01:58.461Z,7.03
2022-12-24T22:04:25.400Z,7.07
2022-12-24T22:07:10.391Z,5.97
2022-12-24T22:09:59.001Z,6.83
2022-12-24T22:12:29.418Z,7.40
2022-12-24T22:14:56.245Z,7.47
2022-12-24T22:17:25.482Z,7.00
2022-12-24T22:19:53.801Z,6.87
2022-12-24T22:22:20.924Z,6.63
2022-12-24T22:24:47.733Z,6.80
2022-12-24T22:27:14.584Z,6.50
2022-12-24T22:29:41.555Z,6.13
2022-12-24T22:32:08.304Z,6.70
2022-12-24T22:34:36.116Z,6.63
2022-12-24T22:37:03.053Z,7.33
2022-12-24T22:39:29.821Z,6.60
2022-12-24T22:41:58.038Z,6.77
2022-12-24T22:44:25.107Z,6.00
2022-12-24T22:46:51.955Z,6.20
2022-12-24T22:49:18.932Z,6.73
2022-12-24T22:51:45.664Z,5.70
2022-12-24T22:54:12.493Z,6.43
2022-12-24T22:56:41.572Z,6.37
2022-12-24T22:59:12.660Z,6.50
2022-12-24T23:01:41.852Z,6.30
2022-12-24T23:04:09.033Z,5.73
2022-12-24T23:06:35.894Z,6.50
2022-12-24T23:09:04.517Z,6.77
2022-12-24T23:11:31.302Z,6.90
2022-12-24T23:14:16.577Z,6.07
2022-12-24T23:16:43.411Z,5.97
2022-12-24T23:19:11.796Z,6.80
2022-12-24T23:21:38.524Z,6.47
2022-12-24T23:24:05.781Z,6.50
2022-12-24T23:26:32.589Z,6.40
2022-12-24T23:28:59.294Z,5.80
2022-12-24T23:31:26.487Z,6.57
2022-12-24T23:33:53.366Z,6.90
2022-12-24T23:36:21.150Z,6.40
2022-12-24T23:38:48.350Z,6.10
2022-12-24T23:41:18.835Z,6.13
2022-12-24T23:43:46.054Z,5.93
2022-12-24T23:46:14.790Z,6.47
2022-12-24T23:48:42.217Z,5.60
2022-12-24T23:51:12.342Z,5.90
2022-12-24T23:53:39.283Z,6.47
2022-12-24T23:56:06.745Z,7.00
2022-12-24T23:58:33.668Z,6.10
